Flight Track Log - Related Links

Times and Time Zones

All times are in EDT time to prevent confusion due to time zone crossing. See the SWA2268 flight status page for this flight to view local times or setup timezone preferences in your user account.

Time Position Orientation Groundspeed Altitude Reporting Facility
EDT Latitude Longitude Course Direction KTS MPH feet Rate Location/Type
Sat 07:05:01 AM 27.9667 -82.5500 180° South 191 220 800  Level Tampa TRACON
Sat 07:05:31 AM 27.9333 -82.5500 180° South 192 221 1,900 3,210 Climbing Tampa TRACON
Sat 07:07:38 AM 28.0100 -82.6386 314° West 277 319 9,200 3,433 Climbing Jacksonville Center
Sat 07:08:38 AM 28.0892 -82.6667 343° North 287 330 12,600 3,100 Climbing Jacksonville Center
Sat 07:09:38 AM 28.1853 -82.6972 344° North 307 353 15,400 2,650 Climbing Jacksonville Center
Sat 07:10:38 AM 28.2814 -82.7253 346° North 329 379 17,900 2,550 Climbing Jacksonville Center
Sat 07:11:38 AM 28.3856 -82.7558 346° North 355 409 20,500 2,500 Climbing Jacksonville Center
Sat 07:12:38 AM 28.4942 -82.7886 345° North 376 433 22,900 2,250 Climbing Jacksonville Center
Sat 07:13:38 AM 28.6069 -82.8217 346° North 395 455 25,000 2,000 Climbing Jacksonville Center
Sat 07:14:38 AM 28.7217 -82.8475 349° North 411 473 26,900 1,800 Climbing Jacksonville Center
Sat 07:15:38 AM 28.8406 -82.8711 350° North 423 487 28,600 1,700 Climbing Jacksonville Center
Sat 07:16:38 AM 28.9617 -82.9019 347° North 435 501 30,300 1,900 Climbing Jacksonville Center
Sat 07:17:38 AM 29.0850 -82.9306 349° North 440 506 32,400 1,900 Climbing Jacksonville Center
Sat 07:18:38 AM 29.2039 -82.9592 348° North 440 506 34,100 1,600 Climbing Jacksonville Center
Sat 07:19:38 AM 29.3250 -82.9856 349° North 440 506 35,600 1,850 Climbing Jacksonville Center
Sat 07:20:38 AM 29.4397 -83.0189 346° North 434 499 37,800 2,050 Climbing Jacksonville Center
Sat 07:21:38 AM 29.5400 -83.0525 344° North 420 483 39,700 1,100 Climbing Jacksonville Center
Sat 07:22:38 AM 29.6422 -83.0836 345° North 401 461 40,000 150 Climbing Jacksonville Center
Sat 07:23:38 AM 29.7464 -83.1197 343° North 390 449 40,000  Level Jacksonville Center
Sat 07:24:38 AM 29.8486 -83.1511 345° North 385 443 40,000  Level Jacksonville Center
Sat 07:25:38 AM 29.9614 -83.1897 343° North 374 430 40,000  Level Jacksonville Center
Sat 07:26:38 AM 30.0572 -83.2189 345° North 382 440 40,000  Level Jacksonville Center
Sat 07:27:38 AM 30.1594 -83.2506 345° North 377 434 40,000  Level Jacksonville Center
Sat 07:28:38 AM 30.2639 -83.2869 343° North 377 434 40,000  Level Jacksonville Center
Sat 07:29:38 AM 30.3639 -83.3186 345° North 377 434 40,000  Level Jacksonville Center
Sat 07:30:38 AM 30.4683 -83.3506 345° North 377 434 40,000  Level Jacksonville Center
Sat 07:31:38 AM 30.5725 -83.3872 343° North 377 434 40,000  Level Jacksonville Center
Sat 07:32:38 AM 30.6747 -83.4192 345° North 377 434 40,000  Level Jacksonville Center
Sat 07:33:38 AM 30.7789 -83.4536 344° North 377 434 40,000  Level Jacksonville Center
Sat 07:34:38 AM 30.8914 -83.4953 342° North 377 434 40,000  Level Jacksonville Center
Sat 07:35:38 AM 30.9936 -83.5300 344° North 377 434 40,000  Level Jacksonville Center
Sat 07:36:38 AM 31.1000 -83.5647 344° North 377 434 40,000  Level Jacksonville Center
Sat 07:37:38 AM 31.2042 -83.5994 344° North 377 434 40,000  Level Jacksonville Center
Sat 07:39:58 AM 31.4392 -83.6786 344° North 392 451 40,000  Level Atlanta Center
Sat 07:40:58 AM 31.5375 -83.7147 343° North 384 442 40,000  Level Atlanta Center
Sat 07:41:58 AM 31.6481 -83.7511 344° North 384 442 40,000  Level Atlanta Center
Sat 07:42:58 AM 31.7483 -83.7800 346° North 384 442 40,000  Level Atlanta Center
Sat 07:43:58 AM 31.8675 -83.8236 343° North 386 444 40,000  Level Atlanta Center
Sat 07:44:58 AM 31.9656 -83.8578 344° North 375 432 40,000  Level Atlanta Center
Sat 07:45:58 AM 32.0639 -83.8919 344° North 375 432 40,000  Level Atlanta Center
Sat 07:46:58 AM 32.1661 -83.9261 344° North 375 432 40,000  Level Atlanta Center
Sat 07:47:58 AM 32.2683 -83.9628 343° North 375 432 40,000  Level Atlanta Center
Sat 07:48:58 AM 32.3706 -83.9969 344° North 381 438 40,000  Level Atlanta Center
Sat 07:49:58 AM 32.4750 -84.0314 344° North 381 438 40,000  Level Atlanta Center
Sat 07:50:58 AM 32.5794 -84.0683 343° North 381 438 40,000  Level Atlanta Center
Sat 07:51:58 AM 32.6839 -84.1056 343° North 381 438 40,000  Level Atlanta Center
Sat 07:52:58 AM 32.7861 -84.1400 344° North 381 438 40,000  Level Atlanta Center
Sat 07:53:58 AM 32.8903 -84.1775 343° North 381 438 40,000  Level Atlanta Center
Sat 07:54:58 AM 32.9925 -84.2147 343° North 381 438 40,000  Level Atlanta Center
Sat 07:55:58 AM 33.0989 -84.2497 345° North 381 438 40,000  Level Atlanta Center
Sat 07:56:58 AM 33.2053 -84.2872 344° North 381 438 40,000  Level Atlanta Center
Sat 07:57:58 AM 33.3097 -84.3247 343° North 381 438 40,000  Level Atlanta Center
Sat 07:58:58 AM 33.4139 -84.3622 343° North 381 438 40,000  Level Atlanta Center
Sat 07:59:58 AM 33.5183 -84.3975 344° North 381 438 40,000  Level Atlanta Center
Sat 08:00:58 AM 33.6183 -84.4356 342° North 381 438 40,000  Level Atlanta Center
Sat 08:01:58 AM 33.7331 -84.4633 349° North 381 438 40,000  Level Atlanta Center
Sat 08:02:58 AM 33.8372 -84.4889 348° North 387 445 40,000  Level Atlanta Center
Sat 08:03:58 AM 33.9519 -84.5147 349° North 402 463 40,000  Level Atlanta Center
Sat 08:04:58 AM 34.0583 -84.5403 349° North 402 463 40,000  Level Atlanta Center
Sat 08:05:58 AM 34.1772 -84.5686 349° North 418 481 40,000  Level Atlanta Center
Sat 08:06:58 AM 34.2897 -84.5944 349° North 418 481 40,000  Level Atlanta Center
Sat 08:07:58 AM 34.4003 -84.6203 349° North 411 473 40,000  Level Atlanta Center
Sat 08:08:58 AM 34.5128 -84.6489 348° North 411 473 40,000  Level Atlanta Center
Sat 08:09:58 AM 34.6211 -84.6800 347° North 411 473 40,000  Level Atlanta Center
Sat 08:10:58 AM 34.7294 -84.7061 349° North 403 464 40,000 -550 Level Atlanta Center
Sat 08:11:58 AM 34.8400 -84.7322 349° North 398 458 38,900 -1,250 Descending Atlanta Center
Sat 08:12:58 AM 34.9483 -84.7608 348° North 398 458 37,500 -1,250 Descending Atlanta Center
Sat 08:13:58 AM 35.0464 -84.7847 349° North 398 458 36,400 -750 Descending Atlanta Center
Sat 08:14:58 AM 35.1589 -84.8136 348° North 393 452 36,000 -200 Descending Atlanta Center
Sat 08:15:58 AM 35.2733 -84.8350 351° North 405 466 36,000  Level Atlanta Center
Sat 08:16:58 AM 35.3881 -84.8617 349° North 416 479 36,000  Level Atlanta Center
Sat 08:17:58 AM 35.5025 -84.8858 350° North 416 479 36,000  Level Atlanta Center
Sat 08:18:58 AM 35.6172 -84.9125 349° North 416 479 36,000  Level Atlanta Center
Sat 08:20:40 AM 35.8133 -84.9519 351° North 428 493 36,000  Level Indianapolis Center
Sat 08:21:41 AM 35.9289 -84.9789 349° North 424 488 36,000  Level Indianapolis Center
Sat 08:22:42 AM 36.0644 -85.0081 350° North 426 490 36,000  Level Indianapolis Center
Sat 08:23:43 AM 36.1817 -85.0336 350° North 426 490 36,000  Level Indianapolis Center
Sat 08:24:44 AM 36.2992 -85.0600 350° North 429 494 36,000  Level Indianapolis Center
Sat 08:25:45 AM 36.4181 -85.0856 350° North 430 495 36,000  Level Indianapolis Center
Sat 08:26:46 AM 36.5367 -85.1131 349° North 432 497 36,000  Level Indianapolis Center
Sat 08:27:47 AM 36.6556 -85.1389 350° North 433 498 36,000  Level Indianapolis Center
Sat 08:28:48 AM 36.7819 -85.1425 359° North 451 519 36,000  Level Indianapolis Center
Sat 08:29:49 AM 36.9078 -85.1433 360° North 451 519 36,000  Level Indianapolis Center
Sat 08:30:50 AM 37.0408 -85.1475 359° North 451 519 36,000  Level Indianapolis Center
Sat 08:31:52 AM 37.1650 -85.1511 359° North 447 514 36,000  Level Indianapolis Center
Sat 08:32:53 AM 37.2922 -85.1558 358° North 451 519 36,000  Level Indianapolis Center
Sat 08:33:54 AM 37.4117 -85.1853 349° North 436 502 36,000  Level Indianapolis Center
Sat 08:34:55 AM 37.5314 -85.2164 348° North 435 501 36,000  Level Indianapolis Center
Sat 08:35:56 AM 37.6494 -85.2489 348° North 434 499 36,000  Level Indianapolis Center
Sat 08:36:57 AM 37.7697 -85.2803 348° North 437 503 36,000  Level Indianapolis Center
Sat 08:37:58 AM 37.9033 -85.3158 348° North 445 512 36,000  Level Indianapolis Center
Sat 08:38:59 AM 38.0200 -85.3483 348° North 433 498 36,000 -98 Level Indianapolis Center
Sat 08:40:00 AM 38.1375 -85.3800 348° North 431 496 35,800 -492 Descending Indianapolis Center
Sat 08:41:01 AM 38.2567 -85.4128 348° North 435 501 35,000 -393 Descending Indianapolis Center
Sat 08:42:02 AM 38.3747 -85.4439 348° North 433 498 35,000  Level Indianapolis Center
Sat 08:43:03 AM 38.4939 -85.4783 347° North 437 503 35,000 -393 Level Indianapolis Center
Sat 08:44:04 AM 38.6142 -85.5119 348° North 441 507 34,200 -885 Descending Indianapolis Center
Sat 08:45:05 AM 38.7403 -85.5464 348° North 450 518 33,200 -984 Descending Indianapolis Center
Sat 08:46:06 AM 38.8600 -85.5800 348° North 445 512 32,200 -934 Descending Indianapolis Center
Sat 08:47:07 AM 38.9822 -85.6136 348° North 450 518 31,300 -934 Descending Indianapolis Center
Sat 08:48:08 AM 39.1061 -85.6492 347° North 455 524 30,300 -984 Descending Indianapolis Center
Sat 08:49:09 AM 39.2297 -85.6839 348° North 457 526 29,300 -639 Descending Indianapolis Center
Sat 08:50:10 AM 39.3767 -85.7250 348° North 454 522 29,000 -146 Descending Indianapolis Center
Sat 08:51:12 AM 39.4975 -85.7594 348° North 449 517 29,000  Level Indianapolis Center
Sat 08:52:13 AM 39.6175 -85.7939 348° North 446 513 29,000  Level Indianapolis Center
Sat 08:53:14 AM 39.7367 -85.8272 348° North 444 511 29,000 -197 Level Indianapolis Center
Sat 08:54:15 AM 39.8561 -85.8631 347° North 446 513 28,600 -1,721 Descending Indianapolis Center
Sat 08:55:16 AM 39.9756 -85.8967 348° North 446 513 25,500 -2,262 Descending Indianapolis Center
Sat 08:56:17 AM 40.1125 -85.9375 347° North 426 490 24,000 -878 Descending Indianapolis Center
Sat 08:57:19 AM 40.2133 -85.9911 338° Northwest 399 459 23,700 -634 Descending Indianapolis Center
Sat 08:58:20 AM 40.3147 -86.0436 338° Northwest 394 453 22,700 -984 Descending Indianapolis Center
Sat 08:59:21 AM 40.4133 -86.0958 338° Northwest 387 445 21,700 -1,023 Descending Indianapolis Center
Sat 09:00:29 AM 40.5317 -86.1575 338° Northwest 384 442 20,500 -1,015 Descending Chicago Center
Sat 09:01:31 AM 40.6281 -86.2089 338° Northwest 379 436 19,500 -927 Descending Chicago Center
Sat 09:02:32 AM 40.7175 -86.2561 338° Northwest 374 430 18,600 -1,328 Descending Chicago Center
Sat 09:03:33 AM 40.8108 -86.3053 338° Northwest 366 421 16,800 -2,000 Descending Chicago Center
Sat 09:04:35 AM 40.9017 -86.3542 338° Northwest 357 411 14,500 -2,390 Descending Chicago Center
Sat 09:05:36 AM 41.0064 -86.4111 338° Northwest 343 395 11,900 -1,805 Descending Chicago Center
Sat 09:06:38 AM 41.0736 -86.4828 321° Northwest 322 371 10,800 -927 Descending Chicago Center
Sat 09:07:39 AM 41.1575 -86.5244 339° North 326 375 10,000 -390 Descending Chicago Center
Sat 09:08:41 AM 41.2456 -86.5436 351° North 320 368 10,000 -293 Level Chicago Center
Sat 09:09:42 AM 41.3250 -86.5658 348° North 295 339 9,400 -488 Descending Chicago Center
Sat 09:10:44 AM 41.3900 -86.6167 330° Northwest 274 315 9,000 -195 Descending Chicago Center
Sat 09:11:45 AM 41.4525 -86.6650 330° Northwest 265 305 9,000 -195 Level Chicago Center
Sat 09:12:47 AM 41.5108 -86.7256 322° Northwest 265 305 8,600 -780 Descending Chicago Center
Sat 09:13:48 AM 41.5164 -86.8375 274° West 258 297 7,400 -1,073 Descending Chicago Center
Sat 09:14:50 AM 41.5186 -86.9333 272° West 260 299 6,400 -683 Descending Chicago Center
Sat 09:15:51 AM 41.5258 -87.0261 276° West 255 293 6,000 -195 Descending Chicago Center
Sat 09:16:53 AM 41.5336 -87.1183 276° West 251 289 6,000  Level Chicago Center
Sat 09:17:18 AM 41.5333 -87.1667 270° West 251 289 6,000  Level Chicago TRACON
Sat 09:18:07 AM 41.5333 -87.2333 270° West 251 289 6,000 -313 Level Chicago TRACON
Sat 09:19:13 AM 41.5500 -87.3500 281° West 255 293 5,400 -650 Descending Chicago TRACON
Sat 09:20:07 AM 41.5500 -87.4333 270° West 251 289 4,700 -736 Descending Chicago TRACON
Sat 09:20:59 AM 41.5944 -87.4869 318° Northwest 253 291 4,100 -372 Descending Chicago Center
Sat 09:22:00 AM 41.6386 -87.5486 314° West 243 280 4,000 -244 Descending Chicago Center
Sat 09:23:02 AM 41.6781 -87.6031 314° West 226 260 3,600 -678 Descending Chicago Center
Sat 09:23:55 AM 41.7167 -87.6500 318° Northwest 178 205 2,700 -953 Descending Chicago TRACON
Sat 09:24:49 AM 41.7333 -87.6833 304° West 148 170 1,900 -833 Descending Chicago TRACON
Sat 09:25:43 AM 41.7667 -87.7167 323° Northwest 127 146 1,200 -778 Descending Chicago TRACON

Login

Don't have an account? Register now (free) for customized features, flight alerts, and more!